Hidden Valley, Valles Caldera, New Mexico Weather observations

Data are for 10 minute period ending at time listed.
 Day   Time   Solar   Ave.   Ave.  Ave.  Vector  Max.   Baro.   Total    
  of    of     Rad.   Air    Rel.  Wind   Wind   Wind  Press.  Precip.   
Year   Day            Temp.  Hum.  Speed  Dir.   Gust                    
2026   (MST)  Kw/m2    F      %     mph   deg.    mph    mb.     in.     
-------------------------------------------------------------------------
 128   15:30   0.75   66.0    18    2.7   275     6.5     0.0    0.01 
 128   15:40   0.61   66.7    18    2.4   281     6.1     0.0    0.01 
 128   15:50   0.48   65.9    18    2.3   248     5.7     0.0    0.01 
 128   16:00   0.63   66.5    19    2.4   298     6.7     0.0    0.01 
 128   16:10   0.53   66.2    18    2.6   226     6.5     0.0    0.01 
 128   16:20   0.57   66.3    20    3.3   316     6.3     0.0    0.01 
 128   16:30   0.56   65.9    18    2.9   258     8.0     0.0    0.01 
 128   16:40   0.50   65.7    18    2.7   272     5.3     0.0    0.01 
 128   16:50   0.50   65.9    18    2.8   270     6.7     0.0    0.01 
 128   17:00   0.44   65.6    17    2.3   357     5.0     0.0    0.01 
 128   17:10   0.35   65.5    18    2.5   302     7.2     0.0    0.01 
 128   17:20   0.33   65.2    18    3.0   315     5.8     0.0    0.01 
 128   17:30   0.31   65.4    18    1.9   311     4.7     0.0    0.01 
 128   17:40   0.27   65.0    17    2.9   262     6.6     0.0    0.01 
 128   17:50   0.18   63.4    18    3.6   246     7.2     0.0    0.01 
 128   18:00   0.07   62.5    19    3.1   265     5.8     0.0    0.01 
 128   18:10   0.03   62.1    19    3.0   235     7.7     0.0    0.01 
 128   18:20   0.02   61.9    20    2.7   259     8.3     0.0    0.01 
 128   18:30   0.02   61.4    20    3.1   228     6.4     0.0    0.01 
 128   18:40   0.01   61.1    20    3.1   240     5.4     0.0    0.01 
 128   18:50   0.01   60.7    21    2.2   248     4.8     0.0    0.01 
 128   19:00   0.01   59.8    22    1.8   237     3.4     0.0    0.01 
 128   19:10   0.00   58.8    23    1.8   227     3.2     0.0    0.01 
 128   19:20   0.00   57.8    24    1.6   235     2.8     0.0    0.01 
 128   19:30   0.00   56.1    26    1.6   240     2.4     0.0    0.01 
 128   19:40   0.00   56.6    26    1.9   233     3.7     0.0    0.01 
 128   19:50   0.00   52.9    33    1.1   236     2.4     0.0    0.01 
 128   20:00   0.00   50.9    34    0.9   193     1.6     0.0    0.01 
 128   20:10   0.00   49.7    35    1.1   205     2.1     0.0    0.01 
 128   20:20   0.00   49.3    37    1.1   199     2.4     0.0    0.01 
 128   20:30   0.00   46.7    42    0.3   226     1.5     0.0    0.01 
 128   20:40   0.00   42.7    51    0.8   359     2.7     0.0    0.01 
 128   20:50   0.00   40.9    53    0.6   268     1.5     0.0    0.01 
 128   21:00   0.00   39.8    56    0.5    36     2.1     0.0    0.01 
 128   21:10   0.00   38.9    59    0.6   351     2.2     0.0    0.01 
 128   21:20   0.00   38.3    61    0.3    85     1.4     0.0    0.01 
 128   21:30   0.00   37.1    64    0.1   322     1.1     0.0    0.01 
 128   21:40   0.00   37.8    66    0.1    43     0.5     0.0    0.01 
 128   21:50   0.00   38.3    60    0.2    48     1.1     0.0    0.01 
 128   22:00   0.00   36.9    66    0.1    29     0.7     0.0    0.01 
 128   22:10   0.00   35.5    70    0.0   257     0.3     0.0    0.01 
 128   22:20   0.00   34.0    71    0.3    32     1.3     0.0    0.01 
 128   22:30   0.00   31.2    78    0.1   332     0.7     0.0    0.01 
 128   22:40   0.00   30.6    76    0.1    38     0.7     0.0    0.01 
 128   22:50   0.00   30.0    78    0.0    47     0.4     0.0    0.01 
 128   23:00   0.00   29.9    79    0.1    47     0.6     0.0    0.01 
 128   23:10   0.00   28.4    85    0.4    22     1.9     0.0    0.01 
 128   23:20   0.00   27.4    84    0.1    23     0.6     0.0    0.01 
 128   23:30   0.00   27.0    84    0.1    22     0.6     0.0    0.01 
 128   23:40   0.00   26.6    86    0.3    21     1.3     0.0    0.01 
 128   23:50   0.00   25.9    88    0.3    36     1.4     0.0    0.01 
 129    0:00   0.00   25.5    91    0.0     7     0.7     0.0    0.01 
 129    0:10   0.00   25.0    90    0.7     4     1.9     0.0    0.01 
 129    0:20   0.00   25.1    92    0.5    44     1.4     0.0    0.01 
 129    0:30   0.00   25.0    91    0.2   350     1.3     0.0    0.01 
 129    0:40   0.00   25.2    88    0.6   342     1.6     0.0    0.01 
 129    0:50   0.00   24.4    89    0.2   147     1.3     0.0    0.01 
 129    1:00   0.00   24.9    88    0.5   182     2.3     0.0    0.01 
 129    1:10   0.00   25.1    88    0.2   152     0.9     0.0    0.01 
 129    1:20   0.00   24.6    89    0.3   251     1.0     0.0    0.01 
 129    1:30   0.00   23.7    88    0.4   248     1.7     0.0    0.01 
 129    1:40   0.00   23.7    91    0.2   209     1.2     0.0    0.01 
 129    1:50   0.00   23.4    90    0.2    67     1.6     0.0    0.01 
 129    2:00   0.00   22.1    92    0.0     0     0.0     0.0    0.01 
 129    2:10   0.00   22.3    92    0.0    53     0.2     0.0    0.01 
 129    2:20   0.00   22.4    92    0.0    54     0.4     0.0    0.01 
 129    2:30   0.00   21.4    91    0.2    56     0.9     0.0    0.01 
 129    2:40   0.00   21.3    93    0.0    53     0.3     0.0    0.01 
 129    2:50   0.00   20.9    94    0.0    53     0.5     0.0    0.01 
 129    3:00   0.00   20.2    93    0.0     0     0.0     0.0    0.01 
 129    3:10   0.00   20.0    92    0.0    53     0.3     0.0    0.01 
 129    3:20   0.00   19.7    92    0.2    53     0.7     0.0    0.01 
 129    3:30   0.00   19.4    93    0.1    42     0.6     0.0    0.01 
 129    3:40   0.00   20.2    94    0.0   316     0.3     0.0    0.01 
 129    3:50   0.00   19.3    92    0.0   323     0.3     0.0    0.01 
 129    4:00   0.00   18.9    93    0.1   337     0.7     0.0    0.01 
 129    4:10   0.00   18.6    92    0.0   340     0.3     0.0    0.01 
 129    4:20   0.00   18.1    92    0.0   335     0.3     0.0    0.01 
 129    4:30   0.00   19.0    92    0.0   335     0.5     0.0    0.01 
 129    4:40   0.00   18.6    91    0.1   337     0.4     0.0    0.01 
 129    4:50   0.00   18.5    92    0.1   301     0.5     0.0    0.01 
 129    5:00   0.00   18.2    92    0.1   312     0.5     0.0    0.01 
 129    5:10   0.00   18.4    93    0.0   312     0.2     0.0    0.01 
 129    5:20   0.01   18.2    93    0.1   311     0.6     0.0    0.01 
 129    5:30   0.02   17.8    93    0.1   311     0.5     0.0    0.01 
 129    5:40   0.06   18.5    92    0.0   312     0.4     0.0    0.01 
 129    5:50   0.10   19.8    89    0.1   312     0.5     0.0    0.01 
 129    6:00   0.14   22.5    87    0.0   310     0.3     0.0    0.01 
 129    6:10   0.17   25.6    84    0.0     0     0.0     0.0    0.01 
 129    6:20   0.20   29.1    77    0.0     0     0.0     0.0    0.01 
 129    6:30   0.23   31.2    75    0.0   313     0.6     0.0    0.01 
 129    6:40   0.26   33.0    75    0.0   313     0.6     0.0    0.01 
 129    6:50   0.30   35.9    71    0.1   269     0.9     0.0    0.01 
 129    7:00   0.34   39.1    64    0.2    80     1.3     0.0    0.01 
 129    7:10   0.38   41.9    60    0.4   357     1.7     0.0    0.01 
 129    7:20   0.41   44.1    53    0.6    29     1.3     0.0    0.01 
 129    7:30   0.45   46.6    47    0.9    38     1.7     0.0    0.01 
 129    7:40   0.49   49.4    44    0.6    67     2.0     0.0    0.01 
 129    7:50   0.52   51.5    43    1.3   191     3.9     0.0    0.01 
 129    8:00   0.55   56.6    34    3.2    19     5.7     0.0    0.01 
 129    8:10   0.59   59.9    28    2.0    44     4.9     0.0    0.01 
 129    8:20   0.62   62.2    24    3.4    24     6.2     0.0    0.01 
 129    8:30   0.65   62.1    26    3.1    49     6.5     0.0    0.01 
 129    8:40   0.69   62.7    21    4.8     6    10.0     0.0    0.01 
 129    8:50   0.68   63.2    21    5.7   354     9.1     0.0    0.01 
 129    9:00   0.77   63.9    21    5.5   355    10.8     0.0    0.01 
 129    9:10   0.64   64.0    20    4.3   344     8.1     0.0    0.01 
 129    9:20   0.48   63.6    18    4.1   341    14.4     0.0    0.01 
 129    9:30   0.73   64.6    18    2.1   300     7.7     0.0    0.01 
 129    9:40   0.72   64.3    19    5.8   342    12.1     0.0    0.01 
 129    9:50   0.88   65.1    19    4.0   329     8.8     0.0    0.01 
 129   10:00   0.78   65.1    18    5.1   328    12.5     0.0    0.01 
 129   10:10   0.62   64.4    19    3.8   302     9.4     0.0    0.01 
 129   10:20   0.98   65.1    18    4.0   265     9.6     0.0    0.01 
 129   10:30   1.00   64.8    17    4.9   237     9.5     0.0    0.01 
 129   10:40   0.80   65.8    18    3.3   284     6.7     0.0    0.01 
 129   10:50   0.77   64.5    18    4.9   349    11.2     0.0    0.01 
 129   11:00   0.95   65.5    19    3.3   313     8.5     0.0    0.01 
 129   11:10   1.09   66.0    19    4.1   242    10.7     0.0    0.01 
 129   11:20   1.11   66.4    20    3.4   324     8.5     0.0    0.01 
 129   11:30   0.98   66.5    18    3.9   284     9.5     0.0    0.01 
 129   11:40   1.16   67.0    18    2.9   283     7.8     0.0    0.01 
 129   11:50   0.98   66.4    18    5.8   336    11.8     0.0    0.01 
 129   12:00   1.12   66.1    18    4.8   314     9.3     0.0    0.01 
 129   12:10   1.12   66.8    17    5.0   238     9.4     0.0    0.01 
 129   12:20   1.09   66.2    18    3.4   252     6.4     0.0    0.01 
 129   12:30   1.08   67.2    17    3.1   310     7.4     0.0    0.01 
 129   12:40   0.87   67.0    18    4.0   342    10.3     0.0    0.01 
 129   12:50   1.13   67.9    18    4.1   278     9.6     0.0    0.01 
 129   13:00   1.10   67.2    16    4.9   250    12.1     0.0    0.01 
 129   13:10   1.11   67.8    17    3.4   258     8.9     0.0    0.01 
 129   13:20   1.07   68.3    17    2.6   254     8.8     0.0    0.01 
 129   13:30   0.96   68.1    16    3.4   290    10.1     0.0    0.01 
 129   13:40   1.03   67.9    16    3.7   274     9.6     0.0    0.01 
 129   13:50   0.99   67.5    15    4.5   251    11.6     0.0    0.01 
 129   14:00   0.57   67.3    15    3.1   260     7.1     0.0    0.01 
 129   14:10   0.80   67.5    15    3.5   279     7.7     0.0    0.01 
 129   14:20   0.94   67.8    15    3.7   260    11.2     0.0    0.01 
 129   14:30   0.91   67.6    16    4.0   267     9.2     0.0    0.01 
 129   14:40   0.82   67.9    16    4.4   320    12.8     0.0    0.01 
 129   14:50   0.48   66.8    17    5.0   340    10.8     0.0    0.01 
 129   15:00   0.81   66.8    17    4.1   342    10.8     0.0    0.01 
 129   15:10   0.81   68.3    16    3.3   332     8.8     0.0    0.01 
 129   15:20   0.79   68.2    14    4.7   250    10.7     0.0    0.01 

Return to Hidden Valley, Valles Caldera graphs page.


Western Regional Climate Center,wrcc@dri.edu